Time;durP1;ratioP1;P1;durP2;ratioP2;P2;SDS_P1;SDS_P2;PMS_P1;PMS_P2;Temp;Humidity;BMP_temperature;BMP_pressure;BME280_temperature;BME280_humidity;BME280_pressure;Samples;Min_cycle;Max_cycle;Signal;HPM_P1;HPM_P2
2023/05/26 00:05:30;;;;;;;11.77;5.50;;;;;;;18.22;49.11;100640.31;4944675;28;20410;-87
2023/05/26 00:07:57;;;;;;;10.07;5.03;;;;;;;18.24;48.92;100630.22;4936608;28;20054;-88
2023/05/26 00:10:24;;;;;;;11.23;5.55;;;;;;;18.30;49.11;100634.13;4926782;28;20413;-87
2023/05/26 00:12:51;;;;;;;12.07;4.93;;;;;;;18.24;49.06;100638.28;4940425;28;20059;-87
2023/05/26 00:15:18;;;;;;;10.70;4.70;;;;;;;18.27;48.99;100653.25;4949747;28;20058;-87
2023/05/26 00:17:47;;;;;;;9.80;5.32;;;;;;;18.14;49.05;100653.72;4940081;28;20055;-87
2023/05/26 00:20:14;;;;;;;13.75;5.63;;;;;;;18.15;48.91;100653.56;4956254;28;20345;-86
2023/05/26 00:22:41;;;;;;;9.65;5.00;;;;;;;18.19;48.99;100641.50;4936466;28;20053;-87
2023/05/26 00:25:08;;;;;;;11.65;4.95;;;;;;;18.23;49.23;100647.38;4946213;28;20047;-87
2023/05/26 00:27:35;;;;;;;8.07;4.70;;;;;;;18.13;49.29;100649.38;4932566;28;20109;-88
2023/05/26 00:30:03;;;;;;;9.00;5.18;;;;;;;18.17;49.42;100650.72;4925368;28;20051;-87
2023/05/26 00:32:30;;;;;;;10.27;4.97;;;;;;;18.11;48.90;100646.00;4949787;28;20055;-86
2023/05/26 00:34:57;;;;;;;9.68;4.95;;;;;;;18.17;49.19;100653.41;4922091;28;20597;-87
2023/05/26 00:37:24;;;;;;;12.18;5.50;;;;;;;18.17;49.26;100642.66;4935959;28;20051;-87
2023/05/26 00:39:51;;;;;;;7.80;4.65;;;;;;;18.17;49.25;100648.03;4928611;28;20054;-86
2023/05/26 00:42:17;;;;;;;9.57;5.57;;;;;;;18.20;49.09;100645.84;4922475;28;20053;-87
2023/05/26 00:44:44;;;;;;;8.98;5.18;;;;;;;18.15;49.12;100636.59;4937189;28;20461;-87
2023/05/26 00:47:11;;;;;;;9.48;5.03;;;;;;;18.17;49.39;100637.28;4938227;28;20054;-87
2023/05/26 00:49:38;;;;;;;10.60;5.28;;;;;;;18.18;49.28;100639.78;4931431;28;20124;-87
2023/05/26 00:52:05;;;;;;;13.18;5.93;;;;;;;18.15;49.26;100636.59;4942505;28;20047;-87
2023/05/26 00:54:32;;;;;;;16.27;6.03;;;;;;;18.18;49.53;100636.28;4937899;28;20230;-87
2023/05/26 00:57:02;;;;;;;8.85;4.88;;;;;;;18.18;49.35;100642.47;4911721;28;20509;-87
2023/05/26 00:59:29;;;;;;;12.15;5.45;;;;;;;18.16;49.39;100633.72;4944977;28;20105;-86
2023/05/26 01:01:56;;;;;;;9.38;4.85;;;;;;;18.18;49.94;100633.59;4970644;28;20070;-87
2023/05/26 01:04:24;;;;;;;11.20;5.32;;;;;;;18.11;49.65;100632.56;4957530;28;20053;-86
2023/05/26 01:06:52;;;;;;;10.85;5.35;;;;;;;18.12;49.72;100645.00;4982738;28;20046;-87
2023/05/26 01:09:19;;;;;;;13.10;5.97;;;;;;;18.08;49.68;100639.09;4957442;28;20572;-88
2023/05/26 01:12:01;;;;;;;13.20;5.88;;;;;;;18.02;49.93;100636.25;4940566;28;20133;-87
2023/05/26 01:14:33;;;;;;;11.02;4.90;;;;;;;18.07;50.25;100637.44;4949213;28;20051;-87
2023/05/26 01:17:04;;;;;;;9.88;4.78;;;;;;;18.07;50.50;100639.28;4932982;28;20458;-88
2023/05/26 01:19:55;;;;;;;13.80;5.55;;;;;;;17.97;51.48;100634.88;4923856;28;20074;-86
2023/05/26 01:22:24;;;;;;;14.10;5.72;;;;;;;18.05;50.20;100625.16;4939853;28;20481;-86
2023/05/26 01:25:28;;;;;;;14.73;5.47;;;;;;;17.90;50.32;100636.53;4940204;28;20138;-87
2023/05/26 01:28:13;;;;;;;11.88;5.00;;;;;;;17.88;49.84;100629.66;4954789;28;20134;-86
2023/05/26 01:30:42;;;;;;;10.82;5.07;;;;;;;17.93;50.37;100643.44;4972159;28;20487;-87
2023/05/26 01:33:09;;;;;;;9.95;5.03;;;;;;;17.94;49.97;100642.44;4956279;28;20060;-86
2023/05/26 01:35:36;;;;;;;11.98;5.63;;;;;;;17.94;49.65;100634.38;4931747;28;20085;-87
2023/05/26 01:38:03;;;;;;;9.25;5.15;;;;;;;17.96;49.57;100640.41;4921767;28;20042;-87
2023/05/26 01:40:30;;;;;;;12.90;4.63;;;;;;;17.97;50.33;100644.78;4956436;28;20125;-87
2023/05/26 01:43:14;;;;;;;12.05;4.85;;;;;;;17.94;51.17;100639.75;4958604;28;20059;-87
2023/05/26 01:45:46;;;;;;;8.40;5.25;;;;;;;17.90;51.33;100641.91;4939584;28;20046;-86
2023/05/26 01:48:14;;;;;;;12.25;5.97;;;;;;;17.86;51.10;100645.09;4943063;28;20047;-86
2023/05/26 01:50:52;;;;;;;8.38;4.80;;;;;;;17.77;51.71;100642.34;4985706;28;20114;-86
2023/05/26 01:53:21;;;;;;;9.82;5.30;;;;;;;17.80;51.54;100643.91;4941256;28;20053;-87
2023/05/26 01:55:50;;;;;;;12.45;5.53;;;;;;;17.79;51.25;100643.06;4956514;28;20062;-86
2023/05/26 01:58:17;;;;;;;10.93;5.53;;;;;;;17.80;50.88;100643.91;4953895;28;20078;-87
2023/05/26 02:00:46;;;;;;;12.85;5.78;;;;;;;17.81;50.99;100644.72;4956840;28;20055;-88
2023/05/26 02:03:15;;;;;;;9.75;6.03;;;;;;;17.80;51.36;100643.91;4927330;28;20082;-86
2023/05/26 02:05:42;;;;;;;13.30;5.70;;;;;;;17.78;51.57;100654.78;4949675;28;20438;-87
2023/05/26 02:08:12;;;;;;;8.90;5.20;;;;;;;17.73;52.05;100646.38;4927282;28;20054;-87
2023/05/26 02:10:39;;;;;;;11.38;5.50;;;;;;;17.75;51.51;100643.50;4929006;28;20051;-87
2023/05/26 02:13:06;;;;;;;14.63;6.13;;;;;;;17.77;51.75;100644.19;4936639;28;20508;-87
2023/05/26 02:15:33;;;;;;;16.77;5.95;;;;;;;17.74;51.32;100648.06;4921664;28;20576;-87
2023/05/26 02:18:02;;;;;;;12.18;5.80;;;;;;;17.71;51.58;100645.69;4945546;28;20426;-87
2023/05/26 02:20:30;;;;;;;10.18;5.22;;;;;;;17.72;51.52;100644.69;4964730;28;20050;-87
2023/05/26 02:22:57;;;;;;;12.25;5.78;;;;;;;17.69;51.67;100636.13;4963306;28;20449;-87
2023/05/26 02:25:24;;;;;;;13.73;5.88;;;;;;;17.69;51.79;100641.50;4967087;28;20054;-86
2023/05/26 02:27:51;;;;;;;12.13;5.80;;;;;;;17.64;52.17;100638.44;4937734;28;20170;-86
2023/05/26 02:30:18;;;;;;;13.07;6.60;;;;;;;17.60;52.07;100637.91;4967669;28;20113;-86
2023/05/26 02:32:45;;;;;;;14.15;6.43;;;;;;;17.56;52.43;100631.19;4960469;28;20050;-87
2023/05/26 02:35:12;;;;;;;13.25;6.28;;;;;;;17.60;51.95;100648.66;4940710;28;20454;-87
2023/05/26 02:37:41;;;;;;;14.55;5.80;;;;;;;17.62;51.52;100646.66;4943215;28;20058;-87
2023/05/26 02:40:09;;;;;;;15.98;6.22;;;;;;;17.58;51.71;100634.56;4946782;28;20062;-86
2023/05/26 02:42:36;;;;;;;11.70;5.63;;;;;;;17.59;52.17;100638.94;4941018;28;20042;-87
2023/05/26 02:45:03;;;;;;;16.08;6.20;;;;;;;17.57;52.30;100643.59;4930909;28;20051;-88
2023/05/26 02:47:33;;;;;;;11.63;5.78;;;;;;;17.55;51.85;100642.94;4929077;28;20054;-87
2023/05/26 02:50:00;;;;;;;12.00;5.95;;;;;;;17.54;51.97;100646.63;4956919;28;20588;-86
2023/05/26 02:52:27;;;;;;;13.60;6.25;;;;;;;17.52;51.58;100648.63;4948649;28;20105;-86
2023/05/26 02:54:54;;;;;;;12.57;6.60;;;;;;;17.53;51.67;100651.16;4960898;28;20063;-86
2023/05/26 02:57:21;;;;;;;12.70;7.05;;;;;;;17.57;51.59;100648.97;4948085;28;20055;-87
2023/05/26 02:59:48;;;;;;;17.80;6.93;;;;;;;17.50;51.34;100646.13;4954667;28;20494;-86
2023/05/26 03:02:15;;;;;;;13.18;6.28;;;;;;;17.51;51.70;100652.31;4955002;28;20121;-86
2023/05/26 03:04:41;;;;;;;14.38;6.75;;;;;;;17.44;51.46;100641.38;4949118;28;20078;-87
2023/05/26 03:07:08;;;;;;;17.30;7.25;;;;;;;17.44;51.61;100643.22;4946579;28;20063;-87
2023/05/26 03:09:37;;;;;;;15.15;6.78;;;;;;;17.46;51.54;100647.44;4941089;28;20055;-86
2023/05/26 03:12:06;;;;;;;11.55;6.30;;;;;;;17.46;51.59;100650.13;4941182;28;20121;-87
2023/05/26 03:14:34;;;;;;;11.93;6.75;;;;;;;17.45;51.52;100640.34;4938654;28;20047;-86
2023/05/26 03:17:01;;;;;;;10.73;6.68;;;;;;;17.43;51.91;100636.16;4962559;28;20055;-86
2023/05/26 03:19:28;;;;;;;14.30;6.63;;;;;;;17.42;52.16;100637.16;4948120;28;20146;-86
2023/05/26 03:21:56;;;;;;;12.40;6.03;;;;;;;17.42;52.08;100634.47;4940386;28;20050;-87
2023/05/26 03:24:43;;;;;;;13.98;7.10;;;;;;;17.39;52.30;100641.00;4918211;28;20664;-86
2023/05/26 03:27:11;;;;;;;14.88;7.28;;;;;;;17.38;51.96;100636.66;4910037;28;20047;-87
2023/05/26 03:29:37;;;;;;;17.27;7.93;;;;;;;17.40;51.88;100641.84;4939715;28;20517;-87
2023/05/26 03:32:05;;;;;;;12.73;7.38;;;;;;;17.38;51.73;100633.09;4926925;28;20596;-87
2023/05/26 03:34:33;;;;;;;13.23;6.35;;;;;;;17.39;51.80;100638.31;4934408;28;20101;-87
2023/05/26 03:37:00;;;;;;;13.63;6.82;;;;;;;17.39;51.62;100637.50;4945725;28;20043;-86
2023/05/26 03:39:27;;;;;;;18.08;6.78;;;;;;;17.36;51.88;100641.34;4947617;28;20057;-87
2023/05/26 03:41:57;;;;;;;17.10;7.47;;;;;;;17.30;51.66;100637.47;4933481;28;20425;-86
2023/05/26 03:44:26;;;;;;;14.50;6.68;;;;;;;17.32;51.86;100631.91;4944649;28;20047;-87
2023/05/26 03:46:53;;;;;;;15.25;6.70;;;;;;;17.29;51.79;100625.03;4940360;28;20046;-87
2023/05/26 03:49:20;;;;;;;14.90;7.05;;;;;;;17.33;52.00;100631.75;4936652;28;20092;-87
2023/05/26 03:51:48;;;;;;;13.88;7.63;;;;;;;17.34;51.84;100636.13;4943136;28;20428;-87
2023/05/26 03:54:14;;;;;;;14.35;7.28;;;;;;;17.38;52.03;100638.47;4928268;28;20462;-87
2023/05/26 03:56:41;;;;;;;15.35;8.02;;;;;;;17.72;52.50;100635.78;4933390;28;20114;-87
2023/05/26 03:59:08;;;;;;;12.00;6.70;;;;;;;18.49;52.61;100632.94;4952893;28;20055;-86
2023/05/26 04:01:37;;;;;;;13.60;7.47;;;;;;;19.25;51.62;100635.22;4938015;28;20051;-87
2023/05/26 04:04:04;;;;;;;18.40;7.20;;;;;;;19.94;49.99;100631.94;4945126;28;20047;-87
2023/05/26 04:06:32;;;;;;;16.13;7.60;;;;;;;20.62;48.08;100634.88;4951696;28;20310;-86
2023/05/26 04:09:00;;;;;;;12.68;7.38;;;;;;;21.11;46.38;100626.28;4909741;28;20536;-87
2023/05/26 04:11:27;;;;;;;13.82;7.38;;;;;;;21.52;45.00;100640.19;4938677;28;20054;-86
2023/05/26 04:13:54;;;;;;;15.50;7.13;;;;;;;21.63;44.15;100642.44;4938701;28;20055;-86
2023/05/26 04:16:21;;;;;;;9.98;6.60;;;;;;;21.33;44.38;100638.88;4924187;28;20133;-87
2023/05/26 04:18:48;;;;;;;11.98;7.70;;;;;;;21.01;44.30;100638.22;4955313;28;20047;-87
2023/05/26 04:21:15;;;;;;;13.65;7.40;;;;;;;20.62;45.05;100629.47;4950320;28;20586;-87
2023/05/26 04:23:42;;;;;;;14.70;8.23;;;;;;;20.29;45.73;100635.09;4949781;28;20053;-87
2023/05/26 04:26:09;;;;;;;14.57;6.90;;;;;;;20.06;46.26;100643.16;4969610;28;20043;-87
2023/05/26 04:28:56;;;;;;;17.23;8.77;;;;;;;19.78;46.76;100645.50;4957243;28;20525;-87
2023/05/26 04:31:56;;;;;;;13.75;7.38;;;;;;;19.52;47.46;100643.91;4953638;28;20046;-88
2023/05/26 04:34:40;;;;;;;13.07;7.10;;;;;;;19.38;47.02;100642.75;4917186;28;20302;-87
2023/05/26 04:37:18;;;;;;;13.27;7.63;;;;;;;19.13;47.56;100651.91;4964550;28;20062;-88
2023/05/26 04:39:45;;;;;;;14.52;7.38;;;;;;;19.02;47.92;100655.81;4965892;28;20486;-87
2023/05/26 04:42:12;;;;;;;11.63;7.22;;;;;;;18.89;47.98;100660.88;4971003;28;20039;-87
2023/05/26 04:44:40;;;;;;;16.67;8.13;;;;;;;18.75;48.73;100662.34;4949792;28;20113;-86
2023/05/26 04:47:08;;;;;;;15.20;7.93;;;;;;;18.67;48.88;100660.50;4956862;28;20317;-87
2023/05/26 04:49:36;;;;;;;14.05;7.85;;;;;;;18.60;48.84;100662.19;4963808;28;20049;-87
2023/05/26 04:52:03;;;;;;;12.75;7.55;;;;;;;18.50;49.06;100672.28;4959928;28;20057;-87
2023/05/26 04:54:31;;;;;;;15.25;7.40;;;;;;;18.41;49.04;100660.66;4921343;28;20167;-86
2023/05/26 04:56:58;;;;;;;21.17;7.82;;;;;;;18.18;49.66;100666.66;4934088;28;20106;-87
2023/05/26 04:59:40;;;;;;;17.17;7.15;;;;;;;18.09;49.85;100667.69;4938346;28;20590;-86
2023/05/26 05:02:07;;;;;;;13.75;6.95;;;;;;;18.05;50.35;100673.53;4941506;28;20057;-87
2023/05/26 05:04:48;;;;;;;16.65;7.72;;;;;;;18.00;50.21;100674.84;4945189;28;20054;-88
2023/05/26 05:07:14;;;;;;;12.55;7.18;;;;;;;17.96;50.39;100683.41;4963081;28;20046;-86
2023/05/26 05:09:41;;;;;;;14.02;7.22;;;;;;;17.99;50.67;100689.31;4934034;28;20457;-86
2023/05/26 05:12:09;;;;;;;20.50;7.72;;;;;;;17.95;50.89;100679.88;4962499;28;20055;-86
2023/05/26 05:14:37;;;;;;;15.52;7.43;;;;;;;17.94;50.82;100682.75;4931040;28;20102;-86
2023/05/26 05:17:04;;;;;;;13.40;7.63;;;;;;;17.91;50.69;100691.97;4938989;28;20110;-86
2023/05/26 05:19:32;;;;;;;13.70;7.43;;;;;;;17.87;51.00;100687.91;4936276;28;20365;-87
2023/05/26 05:21:59;;;;;;;18.63;7.07;;;;;;;17.86;50.75;100688.94;4939280;28;20506;-87
2023/05/26 05:24:26;;;;;;;16.20;7.07;;;;;;;17.82;51.03;100678.66;4925462;28;20058;-88
2023/05/26 05:26:53;;;;;;;12.82;6.97;;;;;;;17.79;51.09;100682.50;4950152;28;20122;-87
2023/05/26 05:29:23;;;;;;;16.80;8.13;;;;;;;17.81;51.67;100682.34;4926046;28;21605;-87
2023/05/26 05:31:53;;;;;;;11.70;7.38;;;;;;;17.81;51.31;100685.91;4938447;28;20042;-88
2023/05/26 05:34:21;;;;;;;15.75;8.27;;;;;;;17.84;51.58;100687.41;4937125;28;20552;-87
2023/05/26 05:36:48;;;;;;;18.83;7.55;;;;;;;17.84;51.58;100693.63;4925212;28;20070;-88
2023/05/26 05:39:15;;;;;;;15.02;7.50;;;;;;;17.86;51.46;100686.25;4930517;28;20051;-88
2023/05/26 05:41:41;;;;;;;13.65;7.45;;;;;;;17.88;51.75;100694.97;4931218;28;20080;-87
2023/05/26 05:44:08;;;;;;;14.45;7.72;;;;;;;17.85;51.94;100692.59;4941723;28;20047;-88
2023/05/26 05:46:36;;;;;;;9.13;6.60;;;;;;;17.79;52.04;100707.53;4924201;28;20058;-86
2023/05/26 05:49:14;;;;;;;14.35;7.38;;;;;;;17.73;51.84;100694.72;4952866;28;20051;-85
2023/05/26 05:51:44;;;;;;;14.95;7.35;;;;;;;17.68;51.57;100696.19;4930440;28;20047;-88
2023/05/26 05:54:11;;;;;;;15.25;7.65;;;;;;;17.68;52.19;100698.88;4913756;28;20051;-88
2023/05/26 05:56:38;;;;;;;15.73;6.93;;;;;;;17.71;52.12;100703.94;4926196;28;20053;-88
2023/05/26 05:59:07;;;;;;;16.98;7.70;;;;;;;17.75;51.91;100710.66;4936599;28;20047;-87
2023/05/26 06:01:34;;;;;;;14.55;6.97;;;;;;;17.75;52.13;100708.81;4927473;28;20406;-88
2023/05/26 06:04:02;;;;;;;16.15;7.07;;;;;;;17.74;51.95;100709.00;4970048;28;20063;-87
2023/05/26 06:06:31;;;;;;;15.05;7.20;;;;;;;17.76;52.15;100707.84;4956394;28;20117;-87
2023/05/26 06:08:58;;;;;;;12.52;6.70;;;;;;;17.76;52.34;100699.78;4953557;28;20101;-87
2023/05/26 06:11:26;;;;;;;18.17;7.47;;;;;;;17.84;52.27;100722.34;4969413;28;20047;-88
2023/05/26 06:13:53;;;;;;;14.15;6.60;;;;;;;17.82;52.27;100721.66;4925834;28;20142;-87
2023/05/26 06:16:20;;;;;;;17.98;7.20;;;;;;;17.77;52.20;100722.09;4928529;28;20059;-87
2023/05/26 06:18:47;;;;;;;15.27;7.10;;;;;;;17.72;52.05;100719.06;4934584;28;20059;-88
2023/05/26 06:21:14;;;;;;;16.52;7.75;;;;;;;17.71;52.09;100717.38;4952143;28;20567;-87
2023/05/26 06:23:45;;;;;;;11.95;6.70;;;;;;;17.68;52.18;100715.88;4938205;28;20047;-87
2023/05/26 06:26:12;;;;;;;18.25;7.07;;;;;;;17.58;52.99;100721.34;4939448;28;20552;-87
2023/05/26 06:28:38;;;;;;;16.67;7.20;;;;;;;17.61;52.58;100720.19;4938555;28;20051;-88
2023/05/26 06:31:06;;;;;;;13.10;7.00;;;;;;;17.55;52.91;100715.44;4924369;28;20473;-86
2023/05/26 06:33:39;;;;;;;14.10;6.85;;;;;;;17.54;53.03;100711.91;4925535;28;20146;-88
2023/05/26 06:36:07;;;;;;;14.07;6.75;;;;;;;17.57;53.03;100714.28;4946895;28;20061;-88
2023/05/26 06:38:34;;;;;;;14.20;7.00;;;;;;;17.60;53.27;100723.84;4934233;28;20322;-88
2023/05/26 06:41:06;;;;;;;13.73;6.45;;;;;;;17.65;52.65;100708.09;4950508;28;20495;-87
2023/05/26 06:43:34;;;;;;;14.00;6.85;;;;;;;17.66;53.54;100706.28;4942046;28;20047;-87
2023/05/26 06:46:03;;;;;;;14.35;6.68;;;;;;;17.74;53.51;100709.84;4929454;28;20059;-87
2023/05/26 06:48:30;;;;;;;15.98;6.10;;;;;;;17.78;53.42;100708.53;4925910;28;20046;-87
2023/05/26 06:51:08;;;;;;;15.50;7.63;;;;;;;17.86;53.33;100709.56;4923555;28;20094;-87
2023/05/26 06:53:37;;;;;;;14.18;6.40;;;;;;;17.86;53.17;100717.63;4924390;28;20083;-86
2023/05/26 06:56:06;;;;;;;13.10;6.72;;;;;;;17.90;52.86;100724.38;4939806;28;20047;-86
2023/05/26 06:58:33;;;;;;;15.40;6.45;;;;;;;17.85;52.58;100711.41;4936660;28;20054;-86
2023/05/26 07:01:02;;;;;;;14.32;6.47;;;;;;;17.90;53.34;100713.63;4924507;28;20146;-86
2023/05/26 07:03:31;;;;;;;18.55;6.63;;;;;;;17.86;52.69;100717.63;4938161;28;20207;-86
2023/05/26 07:06:00;;;;;;;14.45;7.25;;;;;;;17.82;52.94;100711.75;4953058;28;20098;-87
2023/05/26 07:08:29;;;;;;;14.88;6.95;;;;;;;17.88;53.44;100704.88;4940916;28;20066;-87
2023/05/26 07:11:14;;;;;;;13.23;6.80;;;;;;;17.88;53.56;100704.88;4936955;28;20051;-88
2023/05/26 07:13:41;;;;;;;13.07;7.13;;;;;;;17.95;54.08;100703.22;4935866;28;20449;-87
2023/05/26 07:16:08;;;;;;;19.30;7.07;;;;;;;17.96;53.78;100708.47;4926735;28;20051;-87
2023/05/26 07:18:35;;;;;;;14.57;6.85;;;;;;;18.00;53.69;100708.97;4924879;28;20383;-87
2023/05/26 07:21:02;;;;;;;13.00;7.30;;;;;;;18.01;53.36;100707.94;4939812;28;20057;-88
2023/05/26 07:23:28;;;;;;;15.10;6.90;;;;;;;18.01;53.19;100705.25;4932646;28;20082;-86
2023/05/26 07:25:56;;;;;;;19.05;6.72;;;;;;;18.04;53.82;100707.66;4954116;28;20042;-87
2023/05/26 07:28:25;;;;;;;12.45;6.47;;;;;;;18.05;53.64;100703.94;4951230;28;20497;-86
2023/05/26 07:30:52;;;;;;;15.85;7.30;;;;;;;18.08;54.19;100711.66;4967663;28;20081;-87
2023/05/26 07:33:25;;;;;;;12.88;7.32;;;;;;;18.04;53.51;100706.78;4926528;28;20399;-87
2023/05/26 07:35:52;;;;;;;18.42;7.05;;;;;;;18.08;53.57;100705.47;4927627;28;20051;-88
2023/05/26 07:38:20;;;;;;;13.50;6.28;;;;;;;18.01;53.96;100705.25;4928048;28;20137;-87
2023/05/26 07:40:47;;;;;;;13.82;6.82;;;;;;;18.07;54.01;100706.47;4917162;28;20039;-86
2023/05/26 07:43:14;;;;;;;20.13;7.15;;;;;;;18.07;53.84;100714.53;4954875;28;20046;-87
2023/05/26 07:45:41;;;;;;;14.95;7.32;;;;;;;18.08;53.76;100718.91;4941396;28;20051;-86
2023/05/26 07:48:07;;;;;;;17.63;6.47;;;;;;;18.08;53.94;100708.16;4923518;28;20465;-87
2023/05/26 07:50:34;;;;;;;14.95;5.93;;;;;;;18.14;53.66;100712.84;4936409;28;20573;-87
2023/05/26 07:53:01;;;;;;;10.07;5.30;;;;;;;18.17;53.86;100705.31;4952809;28;20150;-86
2023/05/26 07:55:29;;;;;;;16.88;6.57;;;;;;;18.23;53.73;100707.34;4931615;28;20113;-88
2023/05/26 07:57:55;;;;;;;13.60;6.78;;;;;;;18.21;53.47;100709.34;4925572;28;20191;-87
2023/05/26 08:00:22;;;;;;;17.17;6.82;;;;;;;18.28;53.03;100697.97;4947704;28;21937;-88
2023/05/26 08:02:49;;;;;;;13.38;5.65;;;;;;;18.32;53.88;100699.28;4936102;28;20166;-87
2023/05/26 08:05:16;;;;;;;11.93;6.28;;;;;;;18.37;54.15;100696.97;4946393;28;20059;-87
2023/05/26 08:07:43;;;;;;;10.82;6.47;;;;;;;18.33;53.88;100709.06;4939778;28;20043;-86
2023/05/26 08:10:10;;;;;;;14.45;6.32;;;;;;;18.34;53.48;100695.47;4937815;28;20581;-88
2023/05/26 08:12:37;;;;;;;14.98;6.45;;;;;;;18.34;53.58;100698.16;4947149;28;20062;-88
2023/05/26 08:15:12;;;;;;;11.73;6.10;;;;;;;18.37;53.95;100696.97;4927645;28;20059;-87
2023/05/26 08:17:39;;;;;;;13.25;6.70;;;;;;;18.43;53.83;100697.13;4931308;28;20083;-86
2023/05/26 08:20:06;;;;;;;12.55;6.82;;;;;;;18.49;53.39;100702.84;4925348;28;20223;-87
2023/05/26 08:22:34;;;;;;;15.23;7.10;;;;;;;18.49;53.48;100702.84;4937305;28;20050;-86
2023/05/26 08:25:01;;;;;;;15.90;6.30;;;;;;;18.50;53.46;100694.63;4919434;28;20129;-87
2023/05/26 08:27:28;;;;;;;14.70;6.10;;;;;;;18.55;53.79;100700.34;4936940;28;20050;-87
2023/05/26 08:29:55;;;;;;;15.93;6.18;;;;;;;18.63;53.98;100696.84;4975589;28;20137;-87
2023/05/26 08:32:21;;;;;;;10.90;6.28;;;;;;;18.64;53.43;100702.03;4954736;28;20054;-86
2023/05/26 08:34:48;;;;;;;15.05;6.05;;;;;;;18.66;53.43;100693.81;4972217;28;20038;-87
2023/05/26 08:37:16;;;;;;;12.07;5.72;;;;;;;18.67;53.32;100698.16;4962345;28;20059;-88
2023/05/26 08:39:43;;;;;;;13.38;6.55;;;;;;;18.66;53.14;100699.19;4942723;28;20035;-86
2023/05/26 08:42:20;;;;;;;15.80;6.60;;;;;;;18.67;52.60;100690.09;4958776;28;20043;-87
2023/05/26 08:45:00;;;;;;;15.90;6.63;;;;;;;18.73;52.90;100702.06;4960838;28;20054;-87
2023/05/26 08:47:27;;;;;;;11.77;5.68;;;;;;;18.78;53.60;100697.03;4953866;28;20066;-86
2023/05/26 08:49:59;;;;;;;12.02;6.30;;;;;;;18.78;53.48;100697.03;4937615;28;20493;-87
2023/05/26 08:52:25;;;;;;;12.90;6.60;;;;;;;18.82;53.45;100701.06;4945854;28;20046;-87
2023/05/26 08:54:52;;;;;;;11.90;6.00;;;;;;;18.86;53.69;100705.94;4940658;28;20077;-87
2023/05/26 08:57:19;;;;;;;13.77;6.25;;;;;;;18.90;52.78;100701.06;4957147;28;20054;-87
2023/05/26 08:59:47;;;;;;;14.13;6.35;;;;;;;18.92;52.56;100700.91;4968270;28;20032;-87
2023/05/26 09:02:15;;;;;;;14.70;6.43;;;;;;;18.90;52.26;100695.66;4969583;28;20066;-86
2023/05/26 09:04:42;;;;;;;17.15;5.95;;;;;;;18.91;52.16;100688.47;4938645;28;20058;-88
2023/05/26 09:07:09;;;;;;;11.60;6.03;;;;;;;18.96;52.36;100713.84;4926746;28;20207;-87
2023/05/26 09:09:51;;;;;;;7.68;5.40;;;;;;;18.91;52.07;100688.47;4937394;28;20046;-87
2023/05/26 09:12:18;;;;;;;11.68;6.10;;;;;;;18.96;52.08;100696.88;4933897;28;20426;-88
2023/05/26 09:14:46;;;;;;;15.32;6.85;;;;;;;18.91;52.13;100689.31;4930050;28;20363;-87
2023/05/26 09:17:13;;;;;;;12.75;6.25;;;;;;;18.98;51.93;100701.06;4963677;28;20051;-87
2023/05/26 09:19:40;;;;;;;10.90;5.38;;;;;;;18.98;52.33;100700.22;4958040;28;20047;-87
2023/05/26 09:22:09;;;;;;;11.02;6.40;;;;;;;19.03;52.57;100703.22;4936015;28;20059;-86
2023/05/26 09:24:47;;;;;;;14.43;6.70;;;;;;;19.02;52.53;100704.25;4931492;28;20058;-88
2023/05/26 09:27:21;;;;;;;13.93;5.85;;;;;;;19.07;52.51;100702.72;4944485;28;20051;-87
2023/05/26 09:29:53;;;;;;;14.45;6.03;;;;;;;19.06;52.18;100703.75;4956592;28;20051;-87
2023/05/26 09:32:27;;;;;;;13.68;5.60;;;;;;;19.12;51.71;100704.09;4945385;28;20142;-87
2023/05/26 09:34:55;;;;;;;11.10;6.35;;;;;;;19.14;52.06;100702.06;4942319;28;20047;-87
2023/05/26 09:37:28;;;;;;;10.43;5.70;;;;;;;19.09;52.12;100706.09;4948253;28;20066;-86
2023/05/26 09:40:05;;;;;;;9.88;5.85;;;;;;;19.16;52.19;100692.81;4940657;28;20050;-87
2023/05/26 09:42:32;;;;;;;11.68;5.57;;;;;;;19.22;51.77;100700.19;4937686;28;20055;-88
2023/05/26 09:45:01;;;;;;;12.63;5.63;;;;;;;19.24;52.05;100706.25;4930416;28;20117;-87
2023/05/26 09:47:33;;;;;;;10.77;5.55;;;;;;;19.26;52.50;100706.94;4949556;28;20134;-87
2023/05/26 09:50:05;;;;;;;11.23;5.68;;;;;;;19.28;51.44;100706.75;4942461;28;20043;-87
2023/05/26 09:52:33;;;;;;;20.38;6.82;;;;;;;19.30;51.91;100705.56;4947144;28;20663;-87
2023/05/26 09:55:00;;;;;;;12.68;6.20;;;;;;;19.35;51.71;100702.34;4956978;28;20502;-87
2023/05/26 09:57:28;;;;;;;13.30;6.13;;;;;;;19.37;51.53;100704.88;4941105;28;20044;-87
2023/05/26 10:00:01;;;;;;;11.20;6.25;;;;;;;19.33;51.27;100698.16;4944700;28;20079;-87
2023/05/26 10:02:33;;;;;;;17.02;6.68;;;;;;;19.40;51.34;100710.75;4940800;28;20104;-87
2023/05/26 10:05:01;;;;;;;13.43;6.13;;;;;;;19.42;50.72;100699.81;4926711;28;20054;-87
2023/05/26 10:07:28;;;;;;;13.13;6.65;;;;;;;19.37;51.31;100694.94;4938137;28;20058;-87
2023/05/26 10:09:59;;;;;;;14.98;6.15;;;;;;;19.38;51.54;100690.41;4940379;28;20046;-86
2023/05/26 10:12:30;;;;;;;11.65;6.05;;;;;;;19.41;51.61;100701.69;4979187;28;20045;-87
2023/05/26 10:14:58;;;;;;;13.55;6.85;;;;;;;19.43;51.57;100688.03;4954802;28;20723;-86
2023/05/26 10:17:25;;;;;;;9.85;5.78;;;;;;;19.43;51.11;100680.78;4972432;28;20058;-88
2023/05/26 10:19:55;;;;;;;10.13;5.38;;;;;;;19.48;51.38;100691.03;4963077;28;20141;-87
2023/05/26 10:22:33;;;;;;;14.60;6.10;;;;;;;19.46;50.96;100684.97;4958757;28;20490;-87
2023/05/26 10:25:22;;;;;;;12.52;6.25;;;;;;;19.57;51.44;100690.00;4939680;28;20134;-88
2023/05/26 10:28:08;;;;;;;12.02;5.68;;;;;;;19.51;50.48;100686.16;4952921;28;20047;-88
2023/05/26 10:30:34;;;;;;;9.38;5.45;;;;;;;19.62;50.89;100689.50;4951691;28;20055;-87
2023/05/26 10:33:09;;;;;;;12.73;5.68;;;;;;;19.60;49.83;100692.34;4952809;28;20039;-88
2023/05/26 10:35:36;;;;;;;13.80;6.25;;;;;;;19.64;49.96;100685.63;4943042;28;20485;-87
2023/05/26 10:38:03;;;;;;;11.85;5.45;;;;;;;19.68;50.54;100688.81;4923184;28;20062;-85
2023/05/26 10:40:33;;;;;;;8.15;4.85;;;;;;;19.65;48.93;100689.97;4956652;28;20043;-87
2023/05/26 10:43:02;;;;;;;11.38;5.15;;;;;;;19.67;49.55;100682.59;4949008;28;20042;-87
2023/05/26 10:45:31;;;;;;;12.35;6.20;;;;;;;19.70;49.89;100684.94;4923578;28;20051;-87
2023/05/26 10:48:05;;;;;;;11.50;6.05;;;;;;;19.75;49.60;100687.13;4921643;28;20101;-87
2023/05/26 10:50:58;;;;;;;12.73;5.38;;;;;;;19.68;49.61;100680.75;4957072;28;20161;-88
2023/05/26 10:53:30;;;;;;;10.73;4.90;;;;;;;19.73;48.87;100689.13;4955406;28;20581;-87
2023/05/26 10:56:05;;;;;;;13.33;5.30;;;;;;;19.71;49.06;100678.53;4951705;28;20043;-88
2023/05/26 10:58:35;;;;;;;12.55;5.90;;;;;;;19.81;49.38;100690.97;4951220;28;20538;-87
2023/05/26 11:01:06;;;;;;;13.43;5.07;;;;;;;19.80;48.36;100678.50;4932789;28;20100;-86
2023/05/26 11:03:38;;;;;;;11.60;5.75;;;;;;;19.78;48.90;100675.97;4964132;28;20092;-87
2023/05/26 11:06:05;;;;;;;11.18;5.40;;;;;;;19.82;48.69;100674.63;4973819;28;20050;-86
2023/05/26 11:08:35;;;;;;;16.02;6.18;;;;;;;19.89;48.92;100685.53;4956360;28;20174;-87
2023/05/26 11:11:04;;;;;;;16.52;6.03;;;;;;;19.89;49.50;100680.97;4947425;28;20121;-87
2023/05/26 11:13:42;;;;;;;10.70;5.72;;;;;;;19.86;48.22;100688.56;4964274;28;20061;-87
2023/05/26 11:16:15;;;;;;;11.38;5.15;;;;;;;19.91;48.51;100668.16;4961048;28;20501;-87
2023/05/26 11:18:48;;;;;;;11.10;5.28;;;;;;;19.95;48.87;100679.44;4944526;28;20136;-86
2023/05/26 11:21:16;;;;;;;13.15;5.47;;;;;;;19.98;48.17;100665.59;4962267;28;20047;-87
2023/05/26 11:23:45;;;;;;;12.65;5.55;;;;;;;19.98;48.33;100665.59;4959409;28;20070;-86
2023/05/26 11:26:15;;;;;;;11.30;6.25;;;;;;;19.99;47.34;100658.34;4956129;28;20073;-87
2023/05/26 11:28:44;;;;;;;13.73;5.32;;;;;;;20.06;48.37;100664.72;4954905;28;20047;-87
2023/05/26 11:31:12;;;;;;;9.38;5.70;;;;;;;20.07;47.80;100667.22;4936350;28;20050;-88